sensor_id;sensor_type;location;lat;lon;timestamp;P1;durP1;ratioP1;P2;durP2;ratioP2
49310;SDS011;35177;45.900;5.946;2023-04-15T00:01:58;2.63;;;1.83;;
49310;SDS011;35177;45.900;5.946;2023-04-15T00:04:24;1.55;;;1.42;;
49310;SDS011;35177;45.900;5.946;2023-04-15T00:06:50;1.45;;;1.35;;
49310;SDS011;35177;45.900;5.946;2023-04-15T00:09:17;3.40;;;1.30;;
49310;SDS011;35177;45.900;5.946;2023-04-15T00:11:42;4.10;;;1.75;;
49310;SDS011;35177;45.900;5.946;2023-04-15T00:14:07;2.08;;;1.40;;
49310;SDS011;35177;45.900;5.946;2023-04-15T00:16:33;3.75;;;1.58;;
49310;SDS011;35177;45.900;5.946;2023-04-15T00:18:58;2.80;;;1.60;;
49310;SDS011;35177;45.900;5.946;2023-04-15T00:21:23;3.17;;;1.98;;
49310;SDS011;35177;45.900;5.946;2023-04-15T00:23:49;2.85;;;2.17;;
49310;SDS011;35177;45.900;5.946;2023-04-15T00:26:17;3.75;;;2.30;;
49310;SDS011;35177;45.900;5.946;2023-04-15T00:28:43;3.60;;;1.55;;
49310;SDS011;35177;45.900;5.946;2023-04-15T00:31:09;4.43;;;1.65;;
49310;SDS011;35177;45.900;5.946;2023-04-15T00:33:35;3.15;;;1.58;;
49310;SDS011;35177;45.900;5.946;2023-04-15T00:36:00;2.40;;;1.70;;
49310;SDS011;35177;45.900;5.946;2023-04-15T00:38:26;4.25;;;1.55;;
49310;SDS011;35177;45.900;5.946;2023-04-15T00:40:52;2.13;;;1.65;;
49310;SDS011;35177;45.900;5.946;2023-04-15T00:43:17;2.15;;;1.60;;
49310;SDS011;35177;45.900;5.946;2023-04-15T00:45:43;1.35;;;1.25;;
49310;SDS011;35177;45.900;5.946;2023-04-15T00:48:08;1.55;;;1.20;;
49310;SDS011;35177;45.900;5.946;2023-04-15T00:50:34;2.70;;;1.50;;
49310;SDS011;35177;45.900;5.946;2023-04-15T00:52:59;2.42;;;1.70;;
49310;SDS011;35177;45.900;5.946;2023-04-15T00:55:25;3.65;;;2.05;;
49310;SDS011;35177;45.900;5.946;2023-04-15T00:57:50;3.83;;;1.75;;
49310;SDS011;35177;45.900;5.946;2023-04-15T01:00:16;3.08;;;1.88;;
49310;SDS011;35177;45.900;5.946;2023-04-15T01:02:42;4.80;;;2.28;;
49310;SDS011;35177;45.900;5.946;2023-04-15T01:05:07;2.35;;;2.00;;
49310;SDS011;35177;45.900;5.946;2023-04-15T01:07:33;3.80;;;2.47;;
49310;SDS011;35177;45.900;5.946;2023-04-15T01:09:58;2.72;;;2.00;;
49310;SDS011;35177;45.900;5.946;2023-04-15T01:12:25;2.25;;;1.85;;
49310;SDS011;35177;45.900;5.946;2023-04-15T01:14:51;2.30;;;2.10;;
49310;SDS011;35177;45.900;5.946;2023-04-15T01:17:17;1.73;;;1.42;;
49310;SDS011;35177;45.900;5.946;2023-04-15T01:19:43;2.42;;;1.73;;
49310;SDS011;35177;45.900;5.946;2023-04-15T01:22:08;2.00;;;1.35;;
49310;SDS011;35177;45.900;5.946;2023-04-15T01:24:34;4.45;;;1.70;;
49310;SDS011;35177;45.900;5.946;2023-04-15T01:26:59;2.60;;;1.70;;
49310;SDS011;35177;45.900;5.946;2023-04-15T01:29:25;4.60;;;1.52;;
49310;SDS011;35177;45.900;5.946;2023-04-15T01:31:51;1.65;;;1.55;;
49310;SDS011;35177;45.900;5.946;2023-04-15T01:34:17;2.47;;;1.50;;
49310;SDS011;35177;45.900;5.946;2023-04-15T01:36:43;3.03;;;1.50;;
49310;SDS011;35177;45.900;5.946;2023-04-15T01:39:08;2.55;;;1.45;;
49310;SDS011;35177;45.900;5.946;2023-04-15T01:41:33;2.28;;;1.58;;
49310;SDS011;35177;45.900;5.946;2023-04-15T01:43:59;2.13;;;1.33;;
49310;SDS011;35177;45.900;5.946;2023-04-15T01:46:24;2.47;;;1.60;;
49310;SDS011;35177;45.900;5.946;2023-04-15T01:48:50;3.10;;;1.70;;
49310;SDS011;35177;45.900;5.946;2023-04-15T01:51:15;2.72;;;1.77;;
49310;SDS011;35177;45.900;5.946;2023-04-15T01:53:41;1.77;;;1.65;;
49310;SDS011;35177;45.900;5.946;2023-04-15T01:56:06;3.35;;;1.40;;
49310;SDS011;35177;45.900;5.946;2023-04-15T01:58:32;4.60;;;1.58;;
49310;SDS011;35177;45.900;5.946;2023-04-15T02:00:57;3.33;;;1.67;;
49310;SDS011;35177;45.900;5.946;2023-04-15T02:03:23;2.90;;;1.60;;
49310;SDS011;35177;45.900;5.946;2023-04-15T02:05:48;1.65;;;1.08;;
49310;SDS011;35177;45.900;5.946;2023-04-15T02:08:15;1.35;;;1.10;;
49310;SDS011;35177;45.900;5.946;2023-04-15T02:10:40;2.10;;;1.48;;
49310;SDS011;35177;45.900;5.946;2023-04-15T02:13:05;2.42;;;1.50;;
49310;SDS011;35177;45.900;5.946;2023-04-15T02:15:31;1.63;;;1.35;;
49310;SDS011;35177;45.900;5.946;2023-04-15T02:17:57;2.65;;;1.55;;
49310;SDS011;35177;45.900;5.946;2023-04-15T02:20:24;3.28;;;1.50;;
49310;SDS011;35177;45.900;5.946;2023-04-15T02:22:50;3.28;;;1.50;;
49310;SDS011;35177;45.900;5.946;2023-04-15T02:25:16;2.35;;;1.77;;
49310;SDS011;35177;45.900;5.946;2023-04-15T02:27:41;2.17;;;1.17;;
49310;SDS011;35177;45.900;5.946;2023-04-15T02:30:08;3.50;;;2.10;;
49310;SDS011;35177;45.900;5.946;2023-04-15T02:32:33;2.38;;;1.60;;
49310;SDS011;35177;45.900;5.946;2023-04-15T02:35:02;3.55;;;1.80;;
49310;SDS011;35177;45.900;5.946;2023-04-15T02:37:28;2.53;;;1.80;;
49310;SDS011;35177;45.900;5.946;2023-04-15T02:39:55;2.72;;;2.00;;
49310;SDS011;35177;45.900;5.946;2023-04-15T02:42:20;3.15;;;2.22;;
49310;SDS011;35177;45.900;5.946;2023-04-15T02:44:45;4.32;;;2.45;;
49310;SDS011;35177;45.900;5.946;2023-04-15T02:47:11;3.83;;;2.63;;
49310;SDS011;35177;45.900;5.946;2023-04-15T02:49:36;4.15;;;2.83;;
49310;SDS011;35177;45.900;5.946;2023-04-15T02:52:01;2.95;;;2.40;;
49310;SDS011;35177;45.900;5.946;2023-04-15T02:54:26;3.03;;;2.22;;
49310;SDS011;35177;45.900;5.946;2023-04-15T02:56:56;3.42;;;2.80;;
49310;SDS011;35177;45.900;5.946;2023-04-15T02:59:22;4.35;;;2.95;;
49310;SDS011;35177;45.900;5.946;2023-04-15T03:01:47;5.47;;;2.88;;
49310;SDS011;35177;45.900;5.946;2023-04-15T03:04:12;3.88;;;3.22;;
49310;SDS011;35177;45.900;5.946;2023-04-15T03:06:38;4.50;;;3.65;;
49310;SDS011;35177;45.900;5.946;2023-04-15T03:09:03;6.28;;;3.75;;
49310;SDS011;35177;45.900;5.946;2023-04-15T03:11:28;9.15;;;4.13;;
49310;SDS011;35177;45.900;5.946;2023-04-15T03:13:54;5.38;;;3.80;;
49310;SDS011;35177;45.900;5.946;2023-04-15T03:16:19;4.80;;;3.50;;
49310;SDS011;35177;45.900;5.946;2023-04-15T03:18:45;5.80;;;4.07;;
49310;SDS011;35177;45.900;5.946;2023-04-15T03:21:10;5.10;;;4.10;;
49310;SDS011;35177;45.900;5.946;2023-04-15T03:23:35;4.47;;;3.33;;
49310;SDS011;35177;45.900;5.946;2023-04-15T03:26:01;4.57;;;3.63;;
49310;SDS011;35177;45.900;5.946;2023-04-15T03:28:27;4.32;;;3.65;;
49310;SDS011;35177;45.900;5.946;2023-04-15T03:30:53;4.40;;;3.47;;
49310;SDS011;35177;45.900;5.946;2023-04-15T03:33:18;5.57;;;3.25;;
49310;SDS011;35177;45.900;5.946;2023-04-15T03:35:44;4.45;;;3.20;;
49310;SDS011;35177;45.900;5.946;2023-04-15T03:38:09;6.38;;;4.13;;
49310;SDS011;35177;45.900;5.946;2023-04-15T03:40:35;3.90;;;3.33;;
49310;SDS011;35177;45.900;5.946;2023-04-15T03:43:00;6.07;;;3.85;;
49310;SDS011;35177;45.900;5.946;2023-04-15T03:45:26;4.78;;;3.45;;
49310;SDS011;35177;45.900;5.946;2023-04-15T03:47:51;4.05;;;3.65;;
49310;SDS011;35177;45.900;5.946;2023-04-15T03:50:16;6.35;;;3.88;;
49310;SDS011;35177;45.900;5.946;2023-04-15T03:52:42;4.75;;;3.97;;
49310;SDS011;35177;45.900;5.946;2023-04-15T03:55:08;5.82;;;4.07;;
49310;SDS011;35177;45.900;5.946;2023-04-15T03:57:33;4.57;;;3.80;;
49310;SDS011;35177;45.900;5.946;2023-04-15T04:00:03;4.53;;;3.85;;
49310;SDS011;35177;45.900;5.946;2023-04-15T04:02:28;3.92;;;3.35;;
49310;SDS011;35177;45.900;5.946;2023-04-15T04:04:53;4.32;;;3.70;;
49310;SDS011;35177;45.900;5.946;2023-04-15T04:07:19;5.55;;;3.85;;
49310;SDS011;35177;45.900;5.946;2023-04-15T04:09:44;4.18;;;3.30;;
49310;SDS011;35177;45.900;5.946;2023-04-15T04:12:10;5.03;;;3.30;;
49310;SDS011;35177;45.900;5.946;2023-04-15T04:14:35;3.30;;;2.92;;
49310;SDS011;35177;45.900;5.946;2023-04-15T04:17:00;4.75;;;3.40;;
49310;SDS011;35177;45.900;5.946;2023-04-15T04:19:26;4.10;;;3.13;;
49310;SDS011;35177;45.900;5.946;2023-04-15T04:21:51;9.70;;;3.15;;
49310;SDS011;35177;45.900;5.946;2023-04-15T04:24:16;4.63;;;3.30;;
49310;SDS011;35177;45.900;5.946;2023-04-15T04:26:42;5.03;;;3.47;;
49310;SDS011;35177;45.900;5.946;2023-04-15T04:29:07;5.78;;;3.20;;
49310;SDS011;35177;45.900;5.946;2023-04-15T04:31:32;6.25;;;2.67;;
49310;SDS011;35177;45.900;5.946;2023-04-15T04:33:57;3.35;;;2.80;;
49310;SDS011;35177;45.900;5.946;2023-04-15T04:36:23;4.22;;;3.30;;
49310;SDS011;35177;45.900;5.946;2023-04-15T04:38:48;4.40;;;3.15;;
49310;SDS011;35177;45.900;5.946;2023-04-15T04:41:13;4.18;;;3.25;;
49310;SDS011;35177;45.900;5.946;2023-04-15T04:43:39;5.28;;;2.67;;
49310;SDS011;35177;45.900;5.946;2023-04-15T04:46:04;4.90;;;2.72;;
49310;SDS011;35177;45.900;5.946;2023-04-15T04:48:29;5.55;;;2.72;;
49310;SDS011;35177;45.900;5.946;2023-04-15T04:50:55;4.30;;;3.13;;
49310;SDS011;35177;45.900;5.946;2023-04-15T04:53:20;6.78;;;3.28;;
49310;SDS011;35177;45.900;5.946;2023-04-15T04:55:46;3.88;;;2.95;;
49310;SDS011;35177;45.900;5.946;2023-04-15T04:58:11;4.65;;;3.03;;
49310;SDS011;35177;45.900;5.946;2023-04-15T05:00:36;4.53;;;3.05;;
49310;SDS011;35177;45.900;5.946;2023-04-15T05:03:02;3.90;;;3.17;;
49310;SDS011;35177;45.900;5.946;2023-04-15T05:05:27;5.88;;;3.55;;
49310;SDS011;35177;45.900;5.946;2023-04-15T05:07:53;4.90;;;3.83;;
49310;SDS011;35177;45.900;5.946;2023-04-15T05:10:18;4.85;;;3.70;;
49310;SDS011;35177;45.900;5.946;2023-04-15T05:12:43;5.07;;;4.05;;
49310;SDS011;35177;45.900;5.946;2023-04-15T05:15:09;5.20;;;4.03;;
49310;SDS011;35177;45.900;5.946;2023-04-15T05:17:34;5.38;;;4.05;;
49310;SDS011;35177;45.900;5.946;2023-04-15T05:20:00;5.22;;;3.60;;
49310;SDS011;35177;45.900;5.946;2023-04-15T05:22:26;5.43;;;3.63;;
49310;SDS011;35177;45.900;5.946;2023-04-15T05:24:51;5.82;;;3.85;;
49310;SDS011;35177;45.900;5.946;2023-04-15T05:27:17;4.75;;;3.08;;
49310;SDS011;35177;45.900;5.946;2023-04-15T05:29:43;4.60;;;3.47;;
49310;SDS011;35177;45.900;5.946;2023-04-15T05:32:08;6.25;;;3.08;;
49310;SDS011;35177;45.900;5.946;2023-04-15T05:34:34;5.20;;;3.65;;
49310;SDS011;35177;45.900;5.946;2023-04-15T05:36:59;4.53;;;3.58;;
49310;SDS011;35177;45.900;5.946;2023-04-15T05:39:25;3.83;;;2.95;;
49310;SDS011;35177;45.900;5.946;2023-04-15T05:41:50;6.32;;;3.40;;
49310;SDS011;35177;45.900;5.946;2023-04-15T05:44:16;4.53;;;3.13;;
49310;SDS011;35177;45.900;5.946;2023-04-15T05:46:41;5.32;;;3.10;;
49310;SDS011;35177;45.900;5.946;2023-04-15T05:49:07;3.30;;;3.00;;
49310;SDS011;35177;45.900;5.946;2023-04-15T05:51:32;4.45;;;3.20;;
49310;SDS011;35177;45.900;5.946;2023-04-15T05:53:58;4.72;;;2.95;;
49310;SDS011;35177;45.900;5.946;2023-04-15T05:56:23;2.97;;;2.53;;
49310;SDS011;35177;45.900;5.946;2023-04-15T05:58:50;2.20;;;2.00;;
49310;SDS011;35177;45.900;5.946;2023-04-15T06:01:16;2.90;;;2.40;;
49310;SDS011;35177;45.900;5.946;2023-04-15T06:03:41;2.20;;;2.00;;
49310;SDS011;35177;45.900;5.946;2023-04-15T06:06:07;1.60;;;1.50;;
49310;SDS011;35177;45.900;5.946;2023-04-15T06:08:32;3.30;;;2.00;;
49310;SDS011;35177;45.900;5.946;2023-04-15T06:10:59;1.70;;;1.38;;
49310;SDS011;35177;45.900;5.946;2023-04-15T06:13:24;1.10;;;1.00;;
49310;SDS011;35177;45.900;5.946;2023-04-15T06:15:50;1.88;;;1.15;;
49310;SDS011;35177;45.900;5.946;2023-04-15T06:18:15;1.55;;;1.20;;
49310;SDS011;35177;45.900;5.946;2023-04-15T06:20:41;1.98;;;1.17;;
49310;SDS011;35177;45.900;5.946;2023-04-15T06:23:06;2.85;;;1.20;;
49310;SDS011;35177;45.900;5.946;2023-04-15T06:25:32;0.98;;;0.77;;
49310;SDS011;35177;45.900;5.946;2023-04-15T06:27:57;0.95;;;0.73;;
49310;SDS011;35177;45.900;5.946;2023-04-15T06:30:22;1.20;;;0.82;;
49310;SDS011;35177;45.900;5.946;2023-04-15T06:32:49;1.45;;;0.82;;
49310;SDS011;35177;45.900;5.946;2023-04-15T06:35:14;1.27;;;0.80;;
49310;SDS011;35177;45.900;5.946;2023-04-15T06:37:40;0.88;;;0.80;;
49310;SDS011;35177;45.900;5.946;2023-04-15T06:40:05;2.95;;;0.90;;
49310;SDS011;35177;45.900;5.946;2023-04-15T06:42:31;1.23;;;0.90;;
49310;SDS011;35177;45.900;5.946;2023-04-15T06:44:56;1.25;;;1.08;;
49310;SDS011;35177;45.900;5.946;2023-04-15T06:47:21;1.10;;;0.95;;
49310;SDS011;35177;45.900;5.946;2023-04-15T06:49:47;4.00;;;1.50;;
49310;SDS011;35177;45.900;5.946;2023-04-15T06:52:12;2.75;;;1.98;;
49310;SDS011;35177;45.900;5.946;2023-04-15T06:54:37;1.35;;;1.25;;
49310;SDS011;35177;45.900;5.946;2023-04-15T06:57:02;1.40;;;1.20;;
49310;SDS011;35177;45.900;5.946;2023-04-15T06:59:28;2.03;;;1.00;;
49310;SDS011;35177;45.900;5.946;2023-04-15T07:01:54;1.95;;;1.27;;
49310;SDS011;35177;45.900;5.946;2023-04-15T07:04:19;2.65;;;1.30;;
49310;SDS011;35177;45.900;5.946;2023-04-15T07:06:44;1.88;;;1.08;;
49310;SDS011;35177;45.900;5.946;2023-04-15T07:09:10;1.70;;;1.00;;
49310;SDS011;35177;45.900;5.946;2023-04-15T07:11:35;0.98;;;0.88;;
49310;SDS011;35177;45.900;5.946;2023-04-15T07:14:01;0.70;;;0.70;;
49310;SDS011;35177;45.900;5.946;2023-04-15T07:16:26;1.00;;;0.80;;
49310;SDS011;35177;45.900;5.946;2023-04-15T07:18:51;1.00;;;0.80;;
49310;SDS011;35177;45.900;5.946;2023-04-15T07:21:17;0.98;;;0.77;;
49310;SDS011;35177;45.900;5.946;2023-04-15T07:23:42;0.70;;;0.70;;
49310;SDS011;35177;45.900;5.946;2023-04-15T07:26:07;0.65;;;0.60;;
49310;SDS011;35177;45.900;5.946;2023-04-15T07:28:33;1.02;;;0.70;;
49310;SDS011;35177;45.900;5.946;2023-04-15T07:30:58;1.15;;;0.57;;
49310;SDS011;35177;45.900;5.946;2023-04-15T07:33:23;2.22;;;0.60;;
49310;SDS011;35177;45.900;5.946;2023-04-15T07:35:49;1.05;;;0.60;;
49310;SDS011;35177;45.900;5.946;2023-04-15T07:38:14;0.40;;;0.40;;
49310;SDS011;35177;45.900;5.946;2023-04-15T07:40:40;2.97;;;0.68;;
49310;SDS011;35177;45.900;5.946;2023-04-15T07:43:06;0.50;;;0.43;;
49310;SDS011;35177;45.900;5.946;2023-04-15T07:45:31;0.77;;;0.70;;
49310;SDS011;35177;45.900;5.946;2023-04-15T07:47:57;0.88;;;0.80;;
49310;SDS011;35177;45.900;5.946;2023-04-15T07:50:22;1.20;;;0.50;;
49310;SDS011;35177;45.900;5.946;2023-04-15T07:52:51;0.98;;;0.70;;
49310;SDS011;35177;45.900;5.946;2023-04-15T07:55:17;1.17;;;0.73;;
49310;SDS011;35177;45.900;5.946;2023-04-15T07:57:44;0.80;;;0.70;;
49310;SDS011;35177;45.900;5.946;2023-04-15T08:00:09;1.20;;;1.08;;
49310;SDS011;35177;45.900;5.946;2023-04-15T08:02:35;1.90;;;1.40;;
49310;SDS011;35177;45.900;5.946;2023-04-15T08:05:01;1.08;;;0.82;;
49310;SDS011;35177;45.900;5.946;2023-04-15T08:07:28;0.95;;;0.80;;
49310;SDS011;35177;45.900;5.946;2023-04-15T08:09:53;1.10;;;0.65;;
49310;SDS011;35177;45.900;5.946;2023-04-15T08:12:18;1.10;;;1.10;;
49310;SDS011;35177;45.900;5.946;2023-04-15T08:14:44;1.77;;;1.40;;
49310;SDS011;35177;45.900;5.946;2023-04-15T08:17:10;2.28;;;1.02;;
49310;SDS011;35177;45.900;5.946;2023-04-15T08:19:35;1.95;;;0.43;;
49310;SDS011;35177;45.900;5.946;2023-04-15T08:22:00;1.77;;;0.70;;
49310;SDS011;35177;45.900;5.946;2023-04-15T08:24:26;3.20;;;1.30;;
49310;SDS011;35177;45.900;5.946;2023-04-15T08:26:51;0.93;;;0.73;;
49310;SDS011;35177;45.900;5.946;2023-04-15T08:29:17;0.70;;;0.50;;
49310;SDS011;35177;45.900;5.946;2023-04-15T08:31:42;2.42;;;1.30;;
49310;SDS011;35177;45.900;5.946;2023-04-15T08:34:08;0.60;;;0.60;;
49310;SDS011;35177;45.900;5.946;2023-04-15T08:36:35;0.95;;;0.40;;
49310;SDS011;35177;45.900;5.946;2023-04-15T08:39:00;0.50;;;0.47;;
49310;SDS011;35177;45.900;5.946;2023-04-15T08:41:26;0.90;;;0.60;;
49310;SDS011;35177;45.900;5.946;2023-04-15T08:43:56;1.20;;;0.85;;
49310;SDS011;35177;45.900;5.946;2023-04-15T08:46:21;2.10;;;1.30;;
49310;SDS011;35177;45.900;5.946;2023-04-15T08:48:47;3.42;;;1.00;;
49310;SDS011;35177;45.900;5.946;2023-04-15T08:51:13;0.70;;;0.50;;
49310;SDS011;35177;45.900;5.946;2023-04-15T08:53:41;0.73;;;0.43;;
49310;SDS011;35177;45.900;5.946;2023-04-15T08:56:07;1.05;;;0.70;;
49310;SDS011;35177;45.900;5.946;2023-04-15T08:58:34;0.20;;;0.20;;
49310;SDS011;35177;45.900;5.946;2023-04-15T09:01:00;0.55;;;0.52;;
49310;SDS011;35177;45.900;5.946;2023-04-15T09:03:25;0.57;;;0.30;;
49310;SDS011;35177;45.900;5.946;2023-04-15T09:05:51;1.85;;;1.00;;
49310;SDS011;35177;45.900;5.946;2023-04-15T09:08:17;0.52;;;0.40;;
49310;SDS011;35177;45.900;5.946;2023-04-15T09:10:42;1.45;;;1.10;;
49310;SDS011;35177;45.900;5.946;2023-04-15T09:13:07;1.92;;;0.50;;
49310;SDS011;35177;45.900;5.946;2023-04-15T09:15:33;0.55;;;0.30;;
49310;SDS011;35177;45.900;5.946;2023-04-15T09:18:02;0.20;;;0.20;;
49310;SDS011;35177;45.900;5.946;2023-04-15T09:20:27;0.43;;;0.43;;
49310;SDS011;35177;45.900;5.946;2023-04-15T09:22:53;0.95;;;0.40;;
49310;SDS011;35177;45.900;5.946;2023-04-15T09:27:54;0.40;;;0.30;;
49310;SDS011;35177;45.900;5.946;2023-04-15T09:30:19;0.68;;;0.38;;
49310;SDS011;35177;45.900;5.946;2023-04-15T09:32:55;2.55;;;0.32;;
49310;SDS011;35177;45.900;5.946;2023-04-15T09:35:21;0.10;;;0.10;;
49310;SDS011;35177;45.900;5.946;2023-04-15T09:37:47;1.27;;;0.30;;
49310;SDS011;35177;45.900;5.946;2023-04-15T09:40:13;1.30;;;0.20;;
49310;SDS011;35177;45.900;5.946;2023-04-15T09:42:56;0.32;;;0.20;;
49310;SDS011;35177;45.900;5.946;2023-04-15T09:45:22;0.22;;;0.13;;
49310;SDS011;35177;45.900;5.946;2023-04-15T09:47:48;0.32;;;0.30;;
49310;SDS011;35177;45.900;5.946;2023-04-15T09:50:15;1.20;;;0.35;;
49310;SDS011;35177;45.900;5.946;2023-04-15T09:52:40;0.20;;;0.20;;
49310;SDS011;35177;45.900;5.946;2023-04-15T09:55:07;0.10;;;0.10;;
49310;SDS011;35177;45.900;5.946;2023-04-15T09:57:33;0.52;;;0.50;;
49310;SDS011;35177;45.900;5.946;2023-04-15T09:59:58;0.20;;;0.20;;
49310;SDS011;35177;45.900;5.946;2023-04-15T10:02:24;0.70;;;0.40;;
49310;SDS011;35177;45.900;5.946;2023-04-15T10:04:51;0.52;;;0.30;;
49310;SDS011;35177;45.900;5.946;2023-04-15T10:07:16;0.10;;;0.10;;
49310;SDS011;35177;45.900;5.946;2023-04-15T10:09:44;0.65;;;0.50;;
49310;SDS011;35177;45.900;5.946;2023-04-15T10:12:11;0.30;;;0.30;;
49310;SDS011;35177;45.900;5.946;2023-04-15T10:14:36;1.10;;;0.52;;
49310;SDS011;35177;45.900;5.946;2023-04-15T10:17:03;0.32;;;0.17;;
49310;SDS011;35177;45.900;5.946;2023-04-15T10:19:32;0.10;;;0.10;;
49310;SDS011;35177;45.900;5.946;2023-04-15T10:21:57;0.25;;;0.25;;
49310;SDS011;35177;45.900;5.946;2023-04-15T10:24:23;0.10;;;0.10;;
49310;SDS011;35177;45.900;5.946;2023-04-15T10:26:49;0.52;;;0.40;;
49310;SDS011;35177;45.900;5.946;2023-04-15T10:29:15;1.13;;;0.52;;
49310;SDS011;35177;45.900;5.946;2023-04-15T10:31:40;0.73;;;0.50;;
49310;SDS011;35177;45.900;5.946;2023-04-15T10:34:06;1.48;;;0.40;;
49310;SDS011;35177;45.900;5.946;2023-04-15T10:36:32;1.55;;;0.30;;
49310;SDS011;35177;45.900;5.946;2023-04-15T10:38:57;2.20;;;0.30;;
49310;SDS011;35177;45.900;5.946;2023-04-15T10:41:23;0.10;;;0.10;;
49310;SDS011;35177;45.900;5.946;2023-04-15T10:46:39;1.95;;;0.32;;
49310;SDS011;35177;45.900;5.946;2023-04-15T10:51:36;0.30;;;0.30;;
49310;SDS011;35177;45.900;5.946;2023-04-15T10:54:01;0.40;;;0.32;;
49310;SDS011;35177;45.900;5.946;2023-04-15T10:56:27;0.22;;;0.20;;
49310;SDS011;35177;45.900;5.946;2023-04-15T10:58:52;0.73;;;0.30;;
49310;SDS011;35177;45.900;5.946;2023-04-15T11:01:18;0.55;;;0.43;;
49310;SDS011;35177;45.900;5.946;2023-04-15T11:03:44;0.20;;;0.20;;
49310;SDS011;35177;45.900;5.946;2023-04-15T11:06:09;0.10;;;0.10;;
49310;SDS011;35177;45.900;5.946;2023-04-15T11:11:18;0.20;;;0.10;;
49310;SDS011;35177;45.900;5.946;2023-04-15T11:13:48;0.28;;;0.20;;
49310;SDS011;35177;45.900;5.946;2023-04-15T11:16:14;0.40;;;0.20;;
49310;SDS011;35177;45.900;5.946;2023-04-15T11:18:39;0.10;;;0.10;;
49310;SDS011;35177;45.900;5.946;2023-04-15T11:21:05;0.10;;;0.10;;
49310;SDS011;35177;45.900;5.946;2023-04-15T11:23:35;0.15;;;0.15;;
49310;SDS011;35177;45.900;5.946;2023-04-15T11:26:02;0.10;;;0.10;;
49310;SDS011;35177;45.900;5.946;2023-04-15T11:28:29;0.10;;;0.10;;
49310;SDS011;35177;45.900;5.946;2023-04-15T11:30:55;0.10;;;0.10;;
49310;SDS011;35177;45.900;5.946;2023-04-15T11:33:21;0.20;;;0.20;;
49310;SDS011;35177;45.900;5.946;2023-04-15T11:35:47;0.05;;;0.05;;
49310;SDS011;35177;45.900;5.946;2023-04-15T11:38:13;0.05;;;0.05;;
49310;SDS011;35177;45.900;5.946;2023-04-15T11:40:39;0.00;;;0.00;;
49310;SDS011;35177;45.900;5.946;2023-04-15T11:43:06;1.35;;;0.17;;
49310;SDS011;35177;45.900;5.946;2023-04-15T11:45:31;0.35;;;0.30;;
49310;SDS011;35177;45.900;5.946;2023-04-15T11:48:07;1.67;;;0.30;;
49310;SDS011;35177;45.900;5.946;2023-04-15T11:50:32;0.50;;;0.30;;
49310;SDS011;35177;45.900;5.946;2023-04-15T11:52:58;0.20;;;0.13;;
49310;SDS011;35177;45.900;5.946;2023-04-15T11:55:24;0.57;;;0.40;;
49310;SDS011;35177;45.900;5.946;2023-04-15T11:58:04;0.60;;;0.35;;
49310;SDS011;35177;45.900;5.946;2023-04-15T12:00:29;0.85;;;0.40;;
49310;SDS011;35177;45.900;5.946;2023-04-15T12:03:10;0.43;;;0.30;;
49310;SDS011;35177;45.900;5.946;2023-04-15T12:05:35;1.48;;;0.30;;
49310;SDS011;35177;45.900;5.946;2023-04-15T12:08:01;0.20;;;0.20;;
49310;SDS011;35177;45.900;5.946;2023-04-15T12:10:26;0.10;;;0.10;;
49310;SDS011;35177;45.900;5.946;2023-04-15T12:12:52;0.20;;;0.17;;
49310;SDS011;35177;45.900;5.946;2023-04-15T12:15:20;0.47;;;0.10;;
49310;SDS011;35177;45.900;5.946;2023-04-15T12:17:46;0.40;;;0.30;;
49310;SDS011;35177;45.900;5.946;2023-04-15T12:20:11;0.20;;;0.20;;
49310;SDS011;35177;45.900;5.946;2023-04-15T12:22:36;0.30;;;0.30;;
49310;SDS011;35177;45.900;5.946;2023-04-15T12:25:02;0.30;;;0.20;;
49310;SDS011;35177;45.900;5.946;2023-04-15T12:27:27;0.30;;;0.22;;
49310;SDS011;35177;45.900;5.946;2023-04-15T12:30:02;0.40;;;0.40;;
49310;SDS011;35177;45.900;5.946;2023-04-15T12:32:27;4.57;;;0.20;;
49310;SDS011;35177;45.900;5.946;2023-04-15T12:34:53;0.65;;;0.22;;
49310;SDS011;35177;45.900;5.946;2023-04-15T12:37:18;0.43;;;0.13;;
49310;SDS011;35177;45.900;5.946;2023-04-15T12:39:44;0.20;;;0.20;;
49310;SDS011;35177;45.900;5.946;2023-04-15T12:42:10;0.80;;;0.20;;
49310;SDS011;35177;45.900;5.946;2023-04-15T12:44:36;0.05;;;0.05;;
49310;SDS011;35177;45.900;5.946;2023-04-15T12:47:01;0.10;;;0.10;;
49310;SDS011;35177;45.900;5.946;2023-04-15T12:49:27;0.13;;;0.13;;
49310;SDS011;35177;45.900;5.946;2023-04-15T12:51:53;0.17;;;0.17;;
49310;SDS011;35177;45.900;5.946;2023-04-15T12:54:19;0.10;;;0.10;;
49310;SDS011;35177;45.900;5.946;2023-04-15T12:56:45;0.17;;;0.17;;
49310;SDS011;35177;45.900;5.946;2023-04-15T12:59:11;0.38;;;0.20;;
49310;SDS011;35177;45.900;5.946;2023-04-15T13:01:37;0.20;;;0.20;;
49310;SDS011;35177;45.900;5.946;2023-04-15T13:04:02;0.20;;;0.20;;
49310;SDS011;35177;45.900;5.946;2023-04-15T13:06:27;0.15;;;0.15;;
49310;SDS011;35177;45.900;5.946;2023-04-15T13:08:53;0.40;;;0.30;;
49310;SDS011;35177;45.900;5.946;2023-04-15T13:11:20;0.20;;;0.20;;
49310;SDS011;35177;45.900;5.946;2023-04-15T13:13:45;0.20;;;0.20;;
49310;SDS011;35177;45.900;5.946;2023-04-15T13:16:10;0.22;;;0.22;;
49310;SDS011;35177;45.900;5.946;2023-04-15T13:18:36;0.60;;;0.30;;
49310;SDS011;35177;45.900;5.946;2023-04-15T13:21:01;1.90;;;0.20;;
49310;SDS011;35177;45.900;5.946;2023-04-15T13:23:27;0.20;;;0.20;;
49310;SDS011;35177;45.900;5.946;2023-04-15T13:25:52;0.20;;;0.15;;
49310;SDS011;35177;45.900;5.946;2023-04-15T13:28:17;0.13;;;0.10;;
49310;SDS011;35177;45.900;5.946;2023-04-15T13:30:43;0.10;;;0.10;;
49310;SDS011;35177;45.900;5.946;2023-04-15T13:33:08;0.20;;;0.10;;
49310;SDS011;35177;45.900;5.946;2023-04-15T13:35:33;0.20;;;0.10;;
49310;SDS011;35177;45.900;5.946;2023-04-15T13:37:59;0.28;;;0.10;;
49310;SDS011;35177;45.900;5.946;2023-04-15T13:40:24;0.00;;;0.00;;
49310;SDS011;35177;45.900;5.946;2023-04-15T13:42:50;0.28;;;0.10;;
49310;SDS011;35177;45.900;5.946;2023-04-15T13:45:16;0.10;;;0.10;;
49310;SDS011;35177;45.900;5.946;2023-04-15T13:47:41;0.20;;;0.20;;
49310;SDS011;35177;45.900;5.946;2023-04-15T13:50:06;0.47;;;0.20;;
49310;SDS011;35177;45.900;5.946;2023-04-15T13:52:32;0.20;;;0.20;;
49310;SDS011;35177;45.900;5.946;2023-04-15T13:54:57;0.30;;;0.30;;
49310;SDS011;35177;45.900;5.946;2023-04-15T13:57:22;0.40;;;0.35;;
49310;SDS011;35177;45.900;5.946;2023-04-15T13:59:48;0.10;;;0.10;;
49310;SDS011;35177;45.900;5.946;2023-04-15T14:02:13;0.00;;;0.00;;
49310;SDS011;35177;45.900;5.946;2023-04-15T14:04:38;0.28;;;0.10;;
49310;SDS011;35177;45.900;5.946;2023-04-15T14:07:04;0.10;;;0.10;;
49310;SDS011;35177;45.900;5.946;2023-04-15T14:09:29;0.65;;;0.25;;
49310;SDS011;35177;45.900;5.946;2023-04-15T14:11:55;0.43;;;0.32;;
49310;SDS011;35177;45.900;5.946;2023-04-15T14:14:20;1.60;;;1.20;;
49310;SDS011;35177;45.900;5.946;2023-04-15T14:16:46;0.80;;;0.73;;
49310;SDS011;35177;45.900;5.946;2023-04-15T14:19:12;0.20;;;0.20;;
49310;SDS011;35177;45.900;5.946;2023-04-15T14:21:37;0.45;;;0.10;;
49310;SDS011;35177;45.900;5.946;2023-04-15T14:24:02;0.35;;;0.30;;
49310;SDS011;35177;45.900;5.946;2023-04-15T14:26:28;0.57;;;0.40;;
49310;SDS011;35177;45.900;5.946;2023-04-15T14:28:53;0.30;;;0.28;;
49310;SDS011;35177;45.900;5.946;2023-04-15T14:31:18;0.73;;;0.40;;
49310;SDS011;35177;45.900;5.946;2023-04-15T14:33:44;0.30;;;0.20;;
49310;SDS011;35177;45.900;5.946;2023-04-15T14:36:10;0.55;;;0.40;;
49310;SDS011;35177;45.900;5.946;2023-04-15T14:38:36;0.43;;;0.20;;
49310;SDS011;35177;45.900;5.946;2023-04-15T14:41:03;0.90;;;0.70;;
49310;SDS011;35177;45.900;5.946;2023-04-15T14:43:28;0.40;;;0.20;;
49310;SDS011;35177;45.900;5.946;2023-04-15T14:45:53;0.75;;;0.30;;
49310;SDS011;35177;45.900;5.946;2023-04-15T14:48:19;0.30;;;0.30;;
49310;SDS011;35177;45.900;5.946;2023-04-15T14:50:44;0.30;;;0.28;;